sensor_id;sensor_type;location;lat;lon;timestamp;P1;durP1;ratioP1;P2;durP2;ratioP2
1699;SDS011;847;48.058;7.810;2023-10-13T00:01:53;5.17;;;3.50;;
1699;SDS011;847;48.058;7.810;2023-10-13T00:04:20;4.63;;;3.70;;
1699;SDS011;847;48.058;7.810;2023-10-13T00:06:49;5.33;;;3.93;;
1699;SDS011;847;48.058;7.810;2023-10-13T00:09:18;5.40;;;3.90;;
1699;SDS011;847;48.058;7.810;2023-10-13T00:11:50;8.93;;;3.67;;
1699;SDS011;847;48.058;7.810;2023-10-13T00:14:19;5.30;;;3.60;;
1699;SDS011;847;48.058;7.810;2023-10-13T00:16:47;4.93;;;3.60;;
1699;SDS011;847;48.058;7.810;2023-10-13T00:19:28;5.80;;;3.30;;
1699;SDS011;847;48.058;7.810;2023-10-13T00:22:02;6.03;;;3.37;;
1699;SDS011;847;48.058;7.810;2023-10-13T00:24:36;5.97;;;3.20;;
1699;SDS011;847;48.058;7.810;2023-10-13T00:27:08;5.23;;;3.20;;
1699;SDS011;847;48.058;7.810;2023-10-13T00:29:49;5.30;;;3.90;;
1699;SDS011;847;48.058;7.810;2023-10-13T00:32:29;5.23;;;3.73;;
1699;SDS011;847;48.058;7.810;2023-10-13T00:34:57;6.00;;;3.73;;
1699;SDS011;847;48.058;7.810;2023-10-13T00:37:24;7.10;;;3.80;;
1699;SDS011;847;48.058;7.810;2023-10-13T00:39:55;5.33;;;4.67;;
1699;SDS011;847;48.058;7.810;2023-10-13T00:42:23;4.27;;;3.70;;
1699;SDS011;847;48.058;7.810;2023-10-13T00:44:58;5.10;;;3.00;;
1699;SDS011;847;48.058;7.810;2023-10-13T00:47:25;7.40;;;3.60;;
1699;SDS011;847;48.058;7.810;2023-10-13T00:50:14;5.20;;;3.30;;
1699;SDS011;847;48.058;7.810;2023-10-13T00:52:42;5.10;;;3.33;;
1699;SDS011;847;48.058;7.810;2023-10-13T00:55:13;5.70;;;3.17;;
1699;SDS011;847;48.058;7.810;2023-10-13T00:57:39;5.80;;;3.93;;
1699;SDS011;847;48.058;7.810;2023-10-13T01:00:07;5.60;;;3.03;;
1699;SDS011;847;48.058;7.810;2023-10-13T01:02:44;8.40;;;3.83;;
1699;SDS011;847;48.058;7.810;2023-10-13T01:05:10;5.50;;;3.70;;
1699;SDS011;847;48.058;7.810;2023-10-13T01:07:44;4.30;;;3.70;;
1699;SDS011;847;48.058;7.810;2023-10-13T01:10:12;6.10;;;3.67;;
1699;SDS011;847;48.058;7.810;2023-10-13T01:12:39;6.87;;;3.60;;
1699;SDS011;847;48.058;7.810;2023-10-13T01:15:07;5.47;;;3.50;;
1699;SDS011;847;48.058;7.810;2023-10-13T01:17:36;7.20;;;3.60;;
1699;SDS011;847;48.058;7.810;2023-10-13T01:20:02;5.83;;;3.53;;
1699;SDS011;847;48.058;7.810;2023-10-13T01:22:30;8.37;;;3.63;;
1699;SDS011;847;48.058;7.810;2023-10-13T01:24:58;10.03;;;4.00;;
1699;SDS011;847;48.058;7.810;2023-10-13T01:27:37;7.33;;;4.10;;
1699;SDS011;847;48.058;7.810;2023-10-13T01:30:04;4.57;;;3.50;;
1699;SDS011;847;48.058;7.810;2023-10-13T01:32:38;7.47;;;3.70;;
1699;SDS011;847;48.058;7.810;2023-10-13T01:35:10;4.90;;;3.37;;
1699;SDS011;847;48.058;7.810;2023-10-13T01:37:36;5.80;;;3.80;;
1699;SDS011;847;48.058;7.810;2023-10-13T01:40:04;6.40;;;3.90;;
1699;SDS011;847;48.058;7.810;2023-10-13T01:42:31;5.47;;;3.60;;
1699;SDS011;847;48.058;7.810;2023-10-13T01:44:57;5.63;;;3.77;;
1699;SDS011;847;48.058;7.810;2023-10-13T01:47:30;4.47;;;3.50;;
1699;SDS011;847;48.058;7.810;2023-10-13T01:49:58;8.17;;;4.17;;
1699;SDS011;847;48.058;7.810;2023-10-13T01:52:31;5.10;;;4.10;;
1699;SDS011;847;48.058;7.810;2023-10-13T01:54:58;5.23;;;3.83;;
1699;SDS011;847;48.058;7.810;2023-10-13T01:57:27;5.40;;;3.30;;
1699;SDS011;847;48.058;7.810;2023-10-13T01:59:54;6.40;;;3.47;;
1699;SDS011;847;48.058;7.810;2023-10-13T02:02:20;7.87;;;4.00;;
1699;SDS011;847;48.058;7.810;2023-10-13T02:04:54;6.57;;;4.43;;
1699;SDS011;847;48.058;7.810;2023-10-13T02:07:22;5.83;;;3.87;;
1699;SDS011;847;48.058;7.810;2023-10-13T02:09:54;5.40;;;3.70;;
1699;SDS011;847;48.058;7.810;2023-10-13T02:12:20;5.60;;;4.10;;
1699;SDS011;847;48.058;7.810;2023-10-13T02:14:52;4.70;;;3.90;;
1699;SDS011;847;48.058;7.810;2023-10-13T02:17:18;6.80;;;4.70;;
1699;SDS011;847;48.058;7.810;2023-10-13T02:19:46;9.70;;;3.60;;
1699;SDS011;847;48.058;7.810;2023-10-13T02:22:12;9.03;;;4.07;;
1699;SDS011;847;48.058;7.810;2023-10-13T02:24:50;8.13;;;3.97;;
1699;SDS011;847;48.058;7.810;2023-10-13T02:27:17;7.23;;;4.07;;
1699;SDS011;847;48.058;7.810;2023-10-13T02:29:48;9.30;;;4.00;;
1699;SDS011;847;48.058;7.810;2023-10-13T02:32:16;6.57;;;3.47;;
1699;SDS011;847;48.058;7.810;2023-10-13T02:34:44;8.40;;;3.93;;
1699;SDS011;847;48.058;7.810;2023-10-13T02:37:10;6.70;;;4.00;;
1699;SDS011;847;48.058;7.810;2023-10-13T02:39:38;8.60;;;4.10;;
1699;SDS011;847;48.058;7.810;2023-10-13T02:42:06;7.77;;;4.20;;
1699;SDS011;847;48.058;7.810;2023-10-13T02:44:33;6.73;;;4.43;;
1699;SDS011;847;48.058;7.810;2023-10-13T02:47:01;9.97;;;4.57;;
1699;SDS011;847;48.058;7.810;2023-10-13T02:49:32;7.30;;;4.20;;
1699;SDS011;847;48.058;7.810;2023-10-13T02:51:59;5.83;;;4.13;;
1699;SDS011;847;48.058;7.810;2023-10-13T02:54:30;6.23;;;3.90;;
1699;SDS011;847;48.058;7.810;2023-10-13T02:57:04;9.30;;;4.70;;
1699;SDS011;847;48.058;7.810;2023-10-13T02:59:30;6.93;;;3.60;;
1699;SDS011;847;48.058;7.810;2023-10-13T03:02:05;6.17;;;4.13;;
1699;SDS011;847;48.058;7.810;2023-10-13T03:04:43;6.27;;;3.67;;
1699;SDS011;847;48.058;7.810;2023-10-13T03:07:10;6.80;;;3.80;;
1699;SDS011;847;48.058;7.810;2023-10-13T03:09:40;5.13;;;3.27;;
1699;SDS011;847;48.058;7.810;2023-10-13T03:12:15;6.20;;;3.80;;
1699;SDS011;847;48.058;7.810;2023-10-13T03:14:41;5.70;;;3.90;;
1699;SDS011;847;48.058;7.810;2023-10-13T03:17:12;5.07;;;3.70;;
1699;SDS011;847;48.058;7.810;2023-10-13T03:19:42;6.63;;;4.17;;
1699;SDS011;847;48.058;7.810;2023-10-13T03:22:15;5.80;;;4.37;;
1699;SDS011;847;48.058;7.810;2023-10-13T03:24:42;5.80;;;4.20;;
1699;SDS011;847;48.058;7.810;2023-10-13T03:27:11;8.93;;;4.23;;
1699;SDS011;847;48.058;7.810;2023-10-13T03:29:41;5.00;;;4.50;;
1699;SDS011;847;48.058;7.810;2023-10-13T03:32:08;4.93;;;3.93;;
1699;SDS011;847;48.058;7.810;2023-10-13T03:34:40;7.67;;;4.43;;
1699;SDS011;847;48.058;7.810;2023-10-13T03:37:16;8.53;;;3.43;;
1699;SDS011;847;48.058;7.810;2023-10-13T03:40:00;6.53;;;4.00;;
1699;SDS011;847;48.058;7.810;2023-10-13T03:42:31;10.90;;;5.10;;
1699;SDS011;847;48.058;7.810;2023-10-13T03:44:58;9.93;;;3.93;;
1699;SDS011;847;48.058;7.810;2023-10-13T03:47:24;7.47;;;4.13;;
1699;SDS011;847;48.058;7.810;2023-10-13T03:49:53;6.80;;;4.20;;
1699;SDS011;847;48.058;7.810;2023-10-13T03:52:41;4.93;;;3.87;;
1699;SDS011;847;48.058;7.810;2023-10-13T03:55:09;5.00;;;4.23;;
1699;SDS011;847;48.058;7.810;2023-10-13T03:57:42;9.10;;;4.90;;
1699;SDS011;847;48.058;7.810;2023-10-13T04:00:11;7.73;;;4.40;;
1699;SDS011;847;48.058;7.810;2023-10-13T04:02:46;8.50;;;6.57;;
1699;SDS011;847;48.058;7.810;2023-10-13T04:05:19;13.77;;;5.60;;
1699;SDS011;847;48.058;7.810;2023-10-13T04:08:02;8.23;;;5.67;;
1699;SDS011;847;48.058;7.810;2023-10-13T04:10:43;6.00;;;4.80;;
1699;SDS011;847;48.058;7.810;2023-10-13T04:13:28;8.20;;;4.83;;
1699;SDS011;847;48.058;7.810;2023-10-13T04:16:12;7.83;;;4.80;;
1699;SDS011;847;48.058;7.810;2023-10-13T04:18:59;6.53;;;4.67;;
1699;SDS011;847;48.058;7.810;2023-10-13T04:21:34;7.63;;;5.40;;
1699;SDS011;847;48.058;7.810;2023-10-13T04:24:21;9.90;;;5.20;;
1699;SDS011;847;48.058;7.810;2023-10-13T04:27:04;7.00;;;4.50;;
1699;SDS011;847;48.058;7.810;2023-10-13T04:29:49;6.13;;;4.30;;
1699;SDS011;847;48.058;7.810;2023-10-13T04:32:26;8.50;;;4.77;;
1699;SDS011;847;48.058;7.810;2023-10-13T04:35:03;8.73;;;4.57;;
1699;SDS011;847;48.058;7.810;2023-10-13T04:37:35;7.80;;;4.80;;
1699;SDS011;847;48.058;7.810;2023-10-13T04:40:17;8.27;;;5.30;;
1699;SDS011;847;48.058;7.810;2023-10-13T04:42:49;7.03;;;5.43;;
1699;SDS011;847;48.058;7.810;2023-10-13T04:45:18;10.90;;;5.00;;
1699;SDS011;847;48.058;7.810;2023-10-13T04:48:11;7.83;;;4.17;;
1699;SDS011;847;48.058;7.810;2023-10-13T04:50:58;7.90;;;5.13;;
1699;SDS011;847;48.058;7.810;2023-10-13T04:53:59;8.03;;;5.67;;
1699;SDS011;847;48.058;7.810;2023-10-13T04:56:37;8.97;;;5.40;;
1699;SDS011;847;48.058;7.810;2023-10-13T04:59:21;8.97;;;4.80;;
1699;SDS011;847;48.058;7.810;2023-10-13T05:02:23;7.87;;;5.73;;
1699;SDS011;847;48.058;7.810;2023-10-13T05:05:09;8.10;;;5.37;;
1699;SDS011;847;48.058;7.810;2023-10-13T05:08:07;6.73;;;4.50;;
1699;SDS011;847;48.058;7.810;2023-10-13T05:10:52;6.20;;;5.03;;
1699;SDS011;847;48.058;7.810;2023-10-13T05:13:37;9.67;;;5.83;;
1699;SDS011;847;48.058;7.810;2023-10-13T05:16:22;7.50;;;4.70;;
1699;SDS011;847;48.058;7.810;2023-10-13T05:19:06;6.40;;;4.60;;
1699;SDS011;847;48.058;7.810;2023-10-13T05:21:50;10.37;;;5.27;;
1699;SDS011;847;48.058;7.810;2023-10-13T05:24:40;6.00;;;4.53;;
1699;SDS011;847;48.058;7.810;2023-10-13T05:27:24;7.23;;;5.83;;
1699;SDS011;847;48.058;7.810;2023-10-13T05:30:11;9.30;;;5.03;;
1699;SDS011;847;48.058;7.810;2023-10-13T05:32:56;8.03;;;4.80;;
1699;SDS011;847;48.058;7.810;2023-10-13T05:35:40;9.50;;;6.80;;
1699;SDS011;847;48.058;7.810;2023-10-13T05:38:27;13.90;;;5.90;;
1699;SDS011;847;48.058;7.810;2023-10-13T05:41:12;8.20;;;5.07;;
1699;SDS011;847;48.058;7.810;2023-10-13T05:43:56;6.90;;;5.73;;
1699;SDS011;847;48.058;7.810;2023-10-13T05:46:41;6.97;;;5.10;;
1699;SDS011;847;48.058;7.810;2023-10-13T05:49:28;12.07;;;4.87;;
1699;SDS011;847;48.058;7.810;2023-10-13T05:52:15;8.30;;;5.20;;
1699;SDS011;847;48.058;7.810;2023-10-13T05:54:45;6.53;;;5.00;;
1699;SDS011;847;48.058;7.810;2023-10-13T05:57:30;9.20;;;5.57;;
1699;SDS011;847;48.058;7.810;2023-10-13T06:00:15;8.73;;;5.03;;
1699;SDS011;847;48.058;7.810;2023-10-13T06:03:00;7.17;;;5.23;;
1699;SDS011;847;48.058;7.810;2023-10-13T06:05:45;6.90;;;5.60;;
1699;SDS011;847;48.058;7.810;2023-10-13T06:08:29;5.70;;;4.97;;
1699;SDS011;847;48.058;7.810;2023-10-13T06:11:14;6.47;;;5.20;;
1699;SDS011;847;48.058;7.810;2023-10-13T06:13:58;8.60;;;4.80;;
1699;SDS011;847;48.058;7.810;2023-10-13T06:16:43;8.30;;;4.97;;
1699;SDS011;847;48.058;7.810;2023-10-13T06:19:28;7.43;;;5.53;;
1699;SDS011;847;48.058;7.810;2023-10-13T06:22:12;8.80;;;5.50;;
1699;SDS011;847;48.058;7.810;2023-10-13T06:24:57;8.47;;;4.73;;
1699;SDS011;847;48.058;7.810;2023-10-13T06:27:41;9.20;;;5.27;;
1699;SDS011;847;48.058;7.810;2023-10-13T06:30:25;7.83;;;5.30;;
1699;SDS011;847;48.058;7.810;2023-10-13T06:32:52;8.03;;;5.77;;
1699;SDS011;847;48.058;7.810;2023-10-13T06:35:20;9.50;;;6.27;;
1699;SDS011;847;48.058;7.810;2023-10-13T06:37:49;8.03;;;5.10;;
1699;SDS011;847;48.058;7.810;2023-10-13T06:40:16;7.53;;;5.63;;
1699;SDS011;847;48.058;7.810;2023-10-13T06:42:51;7.90;;;5.70;;
1699;SDS011;847;48.058;7.810;2023-10-13T06:45:18;11.50;;;5.97;;
1699;SDS011;847;48.058;7.810;2023-10-13T06:47:47;8.67;;;5.60;;
1699;SDS011;847;48.058;7.810;2023-10-13T06:50:19;9.80;;;4.10;;
1699;SDS011;847;48.058;7.810;2023-10-13T06:52:49;6.67;;;4.80;;
1699;SDS011;847;48.058;7.810;2023-10-13T06:55:20;7.70;;;5.40;;
1699;SDS011;847;48.058;7.810;2023-10-13T06:57:52;11.03;;;5.40;;
1699;SDS011;847;48.058;7.810;2023-10-13T07:00:24;6.70;;;5.33;;
1699;SDS011;847;48.058;7.810;2023-10-13T07:02:55;8.60;;;5.40;;
1699;SDS011;847;48.058;7.810;2023-10-13T07:05:34;9.27;;;5.67;;
1699;SDS011;847;48.058;7.810;2023-10-13T07:08:03;6.60;;;5.50;;
1699;SDS011;847;48.058;7.810;2023-10-13T07:10:30;13.50;;;5.93;;
1699;SDS011;847;48.058;7.810;2023-10-13T07:13:09;8.23;;;4.90;;
1699;SDS011;847;48.058;7.810;2023-10-13T07:15:38;11.40;;;6.53;;
1699;SDS011;847;48.058;7.810;2023-10-13T07:18:10;11.30;;;6.90;;
1699;SDS011;847;48.058;7.810;2023-10-13T07:20:39;11.70;;;6.00;;
1699;SDS011;847;48.058;7.810;2023-10-13T07:23:09;12.47;;;5.70;;
1699;SDS011;847;48.058;7.810;2023-10-13T07:25:43;8.60;;;6.00;;
1699;SDS011;847;48.058;7.810;2023-10-13T07:28:17;8.17;;;6.33;;
1699;SDS011;847;48.058;7.810;2023-10-13T07:30:44;12.63;;;6.60;;
1699;SDS011;847;48.058;7.810;2023-10-13T07:33:35;11.70;;;6.10;;
1699;SDS011;847;48.058;7.810;2023-10-13T07:36:06;13.57;;;7.50;;
1699;SDS011;847;48.058;7.810;2023-10-13T07:38:41;10.83;;;6.27;;
1699;SDS011;847;48.058;7.810;2023-10-13T07:41:08;8.37;;;5.73;;
1699;SDS011;847;48.058;7.810;2023-10-13T07:43:40;9.50;;;5.93;;
1699;SDS011;847;48.058;7.810;2023-10-13T07:46:08;9.27;;;5.73;;
1699;SDS011;847;48.058;7.810;2023-10-13T07:48:36;7.37;;;5.43;;
1699;SDS011;847;48.058;7.810;2023-10-13T07:51:05;7.77;;;4.83;;
1699;SDS011;847;48.058;7.810;2023-10-13T07:53:36;10.70;;;5.30;;
1699;SDS011;847;48.058;7.810;2023-10-13T07:56:05;5.60;;;4.70;;
1699;SDS011;847;48.058;7.810;2023-10-13T07:58:33;7.07;;;4.50;;
1699;SDS011;847;48.058;7.810;2023-10-13T08:01:01;8.43;;;4.97;;
1699;SDS011;847;48.058;7.810;2023-10-13T08:03:34;9.60;;;5.00;;
1699;SDS011;847;48.058;7.810;2023-10-13T08:06:09;8.00;;;5.10;;
1699;SDS011;847;48.058;7.810;2023-10-13T08:08:46;8.53;;;4.90;;
1699;SDS011;847;48.058;7.810;2023-10-13T08:11:18;6.60;;;4.70;;
1699;SDS011;847;48.058;7.810;2023-10-13T08:13:56;6.03;;;4.23;;
1699;SDS011;847;48.058;7.810;2023-10-13T08:16:25;10.30;;;4.80;;
1699;SDS011;847;48.058;7.810;2023-10-13T08:19:10;7.93;;;4.80;;
1699;SDS011;847;48.058;7.810;2023-10-13T08:21:41;7.47;;;4.10;;
1699;SDS011;847;48.058;7.810;2023-10-13T08:24:14;8.73;;;5.00;;
1699;SDS011;847;48.058;7.810;2023-10-13T08:26:52;6.50;;;4.10;;
1699;SDS011;847;48.058;7.810;2023-10-13T08:29:38;9.30;;;3.97;;
1699;SDS011;847;48.058;7.810;2023-10-13T08:32:31;7.30;;;4.20;;
1699;SDS011;847;48.058;7.810;2023-10-13T08:35:19;9.90;;;4.30;;
1699;SDS011;847;48.058;7.810;2023-10-13T08:38:00;8.10;;;4.20;;
1699;SDS011;847;48.058;7.810;2023-10-13T08:40:38;6.80;;;4.13;;
1699;SDS011;847;48.058;7.810;2023-10-13T08:43:24;7.60;;;5.40;;
1699;SDS011;847;48.058;7.810;2023-10-13T08:46:07;10.83;;;4.77;;
1699;SDS011;847;48.058;7.810;2023-10-13T08:48:49;7.67;;;4.43;;
1699;SDS011;847;48.058;7.810;2023-10-13T08:51:29;9.17;;;4.70;;
1699;SDS011;847;48.058;7.810;2023-10-13T08:54:16;10.97;;;3.70;;
1699;SDS011;847;48.058;7.810;2023-10-13T08:56:59;9.83;;;5.60;;
1699;SDS011;847;48.058;7.810;2023-10-13T08:59:31;7.70;;;4.30;;
1699;SDS011;847;48.058;7.810;2023-10-13T09:02:08;6.87;;;4.00;;
1699;SDS011;847;48.058;7.810;2023-10-13T09:04:42;6.83;;;3.83;;
1699;SDS011;847;48.058;7.810;2023-10-13T09:07:10;8.03;;;3.57;;
1699;SDS011;847;48.058;7.810;2023-10-13T09:09:48;4.67;;;3.40;;
1699;SDS011;847;48.058;7.810;2023-10-13T09:12:36;11.57;;;4.33;;
1699;SDS011;847;48.058;7.810;2023-10-13T09:15:05;4.20;;;3.37;;
1699;SDS011;847;48.058;7.810;2023-10-13T09:17:43;8.00;;;3.67;;
1699;SDS011;847;48.058;7.810;2023-10-13T09:20:13;6.67;;;3.60;;
1699;SDS011;847;48.058;7.810;2023-10-13T09:22:56;8.20;;;4.00;;
1699;SDS011;847;48.058;7.810;2023-10-13T09:25:34;7.93;;;3.90;;
1699;SDS011;847;48.058;7.810;2023-10-13T09:28:02;7.17;;;3.43;;
1699;SDS011;847;48.058;7.810;2023-10-13T09:30:42;9.50;;;3.97;;
1699;SDS011;847;48.058;7.810;2023-10-13T09:33:09;6.70;;;3.67;;
1699;SDS011;847;48.058;7.810;2023-10-13T09:35:40;9.03;;;4.50;;
1699;SDS011;847;48.058;7.810;2023-10-13T09:38:14;7.37;;;4.07;;
1699;SDS011;847;48.058;7.810;2023-10-13T09:40:41;5.90;;;3.33;;
1699;SDS011;847;48.058;7.810;2023-10-13T09:43:15;7.47;;;3.70;;
1699;SDS011;847;48.058;7.810;2023-10-13T09:45:43;15.50;;;8.87;;
1699;SDS011;847;48.058;7.810;2023-10-13T09:48:28;7.00;;;4.30;;
1699;SDS011;847;48.058;7.810;2023-10-13T09:50:59;7.77;;;4.03;;
1699;SDS011;847;48.058;7.810;2023-10-13T09:53:28;9.60;;;3.50;;
1699;SDS011;847;48.058;7.810;2023-10-13T09:55:59;9.23;;;3.80;;
1699;SDS011;847;48.058;7.810;2023-10-13T09:58:37;12.67;;;3.70;;
1699;SDS011;847;48.058;7.810;2023-10-13T10:01:12;8.43;;;3.00;;
1699;SDS011;847;48.058;7.810;2023-10-13T10:03:46;10.03;;;3.47;;
1699;SDS011;847;48.058;7.810;2023-10-13T10:06:21;8.90;;;3.40;;
1699;SDS011;847;48.058;7.810;2023-10-13T10:08:53;8.17;;;3.73;;
1699;SDS011;847;48.058;7.810;2023-10-13T10:14:42;9.67;;;4.17;;
1699;SDS011;847;48.058;7.810;2023-10-13T10:17:22;7.00;;;3.23;;
1699;SDS011;847;48.058;7.810;2023-10-13T10:19:54;10.50;;;3.97;;
1699;SDS011;847;48.058;7.810;2023-10-13T10:22:25;7.50;;;2.93;;
1699;SDS011;847;48.058;7.810;2023-10-13T10:24:58;7.20;;;3.17;;
1699;SDS011;847;48.058;7.810;2023-10-13T10:27:28;6.60;;;3.33;;
1699;SDS011;847;48.058;7.810;2023-10-13T10:29:56;5.90;;;3.50;;
1699;SDS011;847;48.058;7.810;2023-10-13T10:32:31;8.03;;;3.60;;
1699;SDS011;847;48.058;7.810;2023-10-13T10:35:06;8.97;;;3.23;;
1699;SDS011;847;48.058;7.810;2023-10-13T10:37:34;6.07;;;2.90;;
1699;SDS011;847;48.058;7.810;2023-10-13T10:40:06;8.33;;;3.63;;
1699;SDS011;847;48.058;7.810;2023-10-13T10:42:35;5.27;;;3.30;;
1699;SDS011;847;48.058;7.810;2023-10-13T10:45:08;9.80;;;3.57;;
1699;SDS011;847;48.058;7.810;2023-10-13T10:47:36;5.03;;;3.07;;
1699;SDS011;847;48.058;7.810;2023-10-13T10:50:04;10.53;;;3.33;;
1699;SDS011;847;48.058;7.810;2023-10-13T10:52:44;6.37;;;3.30;;
1699;SDS011;847;48.058;7.810;2023-10-13T10:55:11;5.60;;;3.13;;
1699;SDS011;847;48.058;7.810;2023-10-13T10:57:45;5.13;;;3.53;;
1699;SDS011;847;48.058;7.810;2023-10-13T11:00:22;5.77;;;3.40;;
1699;SDS011;847;48.058;7.810;2023-10-13T11:03:07;6.90;;;3.53;;
1699;SDS011;847;48.058;7.810;2023-10-13T11:05:42;9.20;;;3.10;;
1699;SDS011;847;48.058;7.810;2023-10-13T11:08:20;4.83;;;3.07;;
1699;SDS011;847;48.058;7.810;2023-10-13T11:10:50;7.13;;;3.33;;
1699;SDS011;847;48.058;7.810;2023-10-13T11:13:18;4.63;;;2.90;;
1699;SDS011;847;48.058;7.810;2023-10-13T11:15:47;5.13;;;3.20;;
1699;SDS011;847;48.058;7.810;2023-10-13T11:18:15;10.10;;;3.13;;
1699;SDS011;847;48.058;7.810;2023-10-13T11:20:46;4.00;;;3.40;;
1699;SDS011;847;48.058;7.810;2023-10-13T11:23:19;3.53;;;3.10;;
1699;SDS011;847;48.058;7.810;2023-10-13T11:25:56;4.53;;;3.10;;
1699;SDS011;847;48.058;7.810;2023-10-13T11:28:25;9.67;;;3.50;;
1699;SDS011;847;48.058;7.810;2023-10-13T11:30:53;4.13;;;3.10;;
1699;SDS011;847;48.058;7.810;2023-10-13T11:33:23;4.83;;;3.60;;
1699;SDS011;847;48.058;7.810;2023-10-13T11:35:52;9.37;;;3.40;;
1699;SDS011;847;48.058;7.810;2023-10-13T11:38:22;7.47;;;3.17;;
1699;SDS011;847;48.058;7.810;2023-10-13T11:40:54;4.70;;;3.40;;
1699;SDS011;847;48.058;7.810;2023-10-13T11:43:38;11.57;;;3.50;;
1699;SDS011;847;48.058;7.810;2023-10-13T11:46:18;7.87;;;3.33;;
1699;SDS011;847;48.058;7.810;2023-10-13T11:49:00;5.30;;;2.80;;
1699;SDS011;847;48.058;7.810;2023-10-13T11:51:39;7.30;;;3.17;;
1699;SDS011;847;48.058;7.810;2023-10-13T11:54:09;5.10;;;3.47;;
1699;SDS011;847;48.058;7.810;2023-10-13T11:56:36;4.87;;;3.10;;
1699;SDS011;847;48.058;7.810;2023-10-13T11:59:05;8.63;;;3.33;;
1699;SDS011;847;48.058;7.810;2023-10-13T12:01:41;10.30;;;3.73;;
1699;SDS011;847;48.058;7.810;2023-10-13T12:04:25;5.40;;;3.50;;
1699;SDS011;847;48.058;7.810;2023-10-13T12:07:08;5.77;;;3.50;;
1699;SDS011;847;48.058;7.810;2023-10-13T12:09:43;5.83;;;3.07;;
1699;SDS011;847;48.058;7.810;2023-10-13T12:12:28;8.13;;;3.87;;
1699;SDS011;847;48.058;7.810;2023-10-13T12:14:57;5.90;;;3.00;;
1699;SDS011;847;48.058;7.810;2023-10-13T12:17:34;5.10;;;3.47;;
1699;SDS011;847;48.058;7.810;2023-10-13T12:20:02;6.90;;;3.37;;
1699;SDS011;847;48.058;7.810;2023-10-13T12:22:30;9.67;;;4.27;;
1699;SDS011;847;48.058;7.810;2023-10-13T12:25:03;5.63;;;3.10;;
1699;SDS011;847;48.058;7.810;2023-10-13T12:27:44;6.00;;;3.30;;
1699;SDS011;847;48.058;7.810;2023-10-13T12:30:14;5.23;;;3.30;;
1699;SDS011;847;48.058;7.810;2023-10-13T12:32:47;5.87;;;3.40;;
1699;SDS011;847;48.058;7.810;2023-10-13T12:35:31;6.20;;;3.50;;
1699;SDS011;847;48.058;7.810;2023-10-13T12:38:00;11.60;;;3.20;;
1699;SDS011;847;48.058;7.810;2023-10-13T12:40:31;5.50;;;3.60;;
1699;SDS011;847;48.058;7.810;2023-10-13T12:43:15;10.67;;;3.27;;
1699;SDS011;847;48.058;7.810;2023-10-13T12:46:00;4.07;;;3.70;;
1699;SDS011;847;48.058;7.810;2023-10-13T12:48:45;6.43;;;3.60;;
1699;SDS011;847;48.058;7.810;2023-10-13T12:51:29;5.90;;;3.47;;
1699;SDS011;847;48.058;7.810;2023-10-13T12:54:16;4.60;;;3.50;;
1699;SDS011;847;48.058;7.810;2023-10-13T12:56:48;3.90;;;3.30;;
1699;SDS011;847;48.058;7.810;2023-10-13T12:59:21;4.33;;;3.20;;
1699;SDS011;847;48.058;7.810;2023-10-13T13:01:53;5.30;;;3.23;;
1699;SDS011;847;48.058;7.810;2023-10-13T13:04:20;10.40;;;3.97;;
1699;SDS011;847;48.058;7.810;2023-10-13T13:06:46;5.13;;;3.30;;
1699;SDS011;847;48.058;7.810;2023-10-13T13:09:14;3.73;;;2.80;;
1699;SDS011;847;48.058;7.810;2023-10-13T13:11:41;7.47;;;3.20;;
1699;SDS011;847;48.058;7.810;2023-10-13T13:14:07;6.37;;;3.73;;
1699;SDS011;847;48.058;7.810;2023-10-13T13:16:35;4.87;;;3.30;;
1699;SDS011;847;48.058;7.810;2023-10-13T13:19:05;6.00;;;3.40;;
1699;SDS011;847;48.058;7.810;2023-10-13T13:21:36;7.87;;;3.20;;
1699;SDS011;847;48.058;7.810;2023-10-13T13:24:03;4.43;;;3.43;;
1699;SDS011;847;48.058;7.810;2023-10-13T13:26:35;4.60;;;3.37;;
1699;SDS011;847;48.058;7.810;2023-10-13T13:29:05;4.67;;;3.20;;
1699;SDS011;847;48.058;7.810;2023-10-13T13:31:34;6.00;;;2.70;;
1699;SDS011;847;48.058;7.810;2023-10-13T13:34:07;6.33;;;3.43;;
1699;SDS011;847;48.058;7.810;2023-10-13T13:36:35;5.07;;;3.40;;
1699;SDS011;847;48.058;7.810;2023-10-13T13:39:02;7.87;;;4.27;;
1699;SDS011;847;48.058;7.810;2023-10-13T13:41:30;5.30;;;2.80;;
1699;SDS011;847;48.058;7.810;2023-10-13T13:43:58;6.67;;;3.30;;
1699;SDS011;847;48.058;7.810;2023-10-13T13:46:38;5.70;;;2.80;;
1699;SDS011;847;48.058;7.810;2023-10-13T13:49:07;6.23;;;3.03;;
1699;SDS011;847;48.058;7.810;2023-10-13T13:51:42;3.93;;;3.10;;
1699;SDS011;847;48.058;7.810;2023-10-13T13:54:16;7.50;;;3.27;;
1699;SDS011;847;48.058;7.810;2023-10-13T13:56:44;4.43;;;3.03;;
1699;SDS011;847;48.058;7.810;2023-10-13T13:59:11;4.57;;;2.93;;
1699;SDS011;847;48.058;7.810;2023-10-13T14:01:40;5.40;;;2.70;;
1699;SDS011;847;48.058;7.810;2023-10-13T14:04:10;4.50;;;2.80;;
1699;SDS011;847;48.058;7.810;2023-10-13T14:06:39;4.83;;;2.73;;
1699;SDS011;847;48.058;7.810;2023-10-13T14:09:06;6.47;;;3.40;;
1699;SDS011;847;48.058;7.810;2023-10-13T14:11:40;6.00;;;3.97;;
1699;SDS011;847;48.058;7.810;2023-10-13T14:14:25;6.00;;;3.10;;
1699;SDS011;847;48.058;7.810;2023-10-13T14:16:58;6.03;;;2.93;;
1699;SDS011;847;48.058;7.810;2023-10-13T14:19:33;6.20;;;2.97;;
1699;SDS011;847;48.058;7.810;2023-10-13T14:22:05;6.80;;;3.03;;
1699;SDS011;847;48.058;7.810;2023-10-13T14:24:32;4.33;;;2.90;;
1699;SDS011;847;48.058;7.810;2023-10-13T14:27:01;5.10;;;2.73;;
1699;SDS011;847;48.058;7.810;2023-10-13T14:29:34;4.33;;;2.43;;
1699;SDS011;847;48.058;7.810;2023-10-13T14:32:05;6.27;;;3.23;;
1699;SDS011;847;48.058;7.810;2023-10-13T14:34:38;5.00;;;2.90;;
1699;SDS011;847;48.058;7.810;2023-10-13T14:37:05;14.40;;;3.00;;
1699;SDS011;847;48.058;7.810;2023-10-13T14:39:33;4.90;;;2.90;;
1699;SDS011;847;48.058;7.810;2023-10-13T14:42:02;6.10;;;2.47;;
1699;SDS011;847;48.058;7.810;2023-10-13T14:44:30;4.70;;;2.73;;
1699;SDS011;847;48.058;7.810;2023-10-13T14:46:57;6.03;;;3.07;;
1699;SDS011;847;48.058;7.810;2023-10-13T14:49:24;9.33;;;3.30;;
1699;SDS011;847;48.058;7.810;2023-10-13T14:51:52;10.37;;;3.40;;
1699;SDS011;847;48.058;7.810;2023-10-13T14:54:21;6.53;;;3.87;;
1699;SDS011;847;48.058;7.810;2023-10-13T14:56:57;7.60;;;3.30;;
1699;SDS011;847;48.058;7.810;2023-10-13T14:59:25;2.97;;;2.40;;
1699;SDS011;847;48.058;7.810;2023-10-13T15:01:52;9.70;;;3.30;;
1699;SDS011;847;48.058;7.810;2023-10-13T15:04:19;4.10;;;2.83;;
1699;SDS011;847;48.058;7.810;2023-10-13T15:06:49;9.70;;;3.30;;
1699;SDS011;847;48.058;7.810;2023-10-13T15:09:18;5.00;;;2.40;;
1699;SDS011;847;48.058;7.810;2023-10-13T15:11:48;5.43;;;2.70;;
1699;SDS011;847;48.058;7.810;2023-10-13T15:14:18;6.23;;;3.10;;
1699;SDS011;847;48.058;7.810;2023-10-13T15:16:47;5.40;;;2.87;;
1699;SDS011;847;48.058;7.810;2023-10-13T15:19:14;5.50;;;3.30;;
1699;SDS011;847;48.058;7.810;2023-10-13T15:21:41;5.50;;;3.10;;
1699;SDS011;847;48.058;7.810;2023-10-13T15:24:14;5.50;;;2.70;;
1699;SDS011;847;48.058;7.810;2023-10-13T15:26:43;6.83;;;3.20;;
1699;SDS011;847;48.058;7.810;2023-10-13T15:29:13;5.63;;;2.97;;
1699;SDS011;847;48.058;7.810;2023-10-13T15:31:41;4.37;;;3.00;;
1699;SDS011;847;48.058;7.810;2023-10-13T15:34:19;5.13;;;2.50;;
1699;SDS011;847;48.058;7.810;2023-10-13T15:36:48;5.67;;;3.33;;
1699;SDS011;847;48.058;7.810;2023-10-13T15:39:17;6.63;;;3.43;;
1699;SDS011;847;48.058;7.810;2023-10-13T15:41:50;5.90;;;2.90;;
1699;SDS011;847;48.058;7.810;2023-10-13T15:44:18;3.57;;;2.63;;
1699;SDS011;847;48.058;7.810;2023-10-13T15:46:50;5.50;;;3.20;;
1699;SDS011;847;48.058;7.810;2023-10-13T15:49:19;6.77;;;3.17;;
1699;SDS011;847;48.058;7.810;2023-10-13T15:51:45;4.57;;;3.00;;
1699;SDS011;847;48.058;7.810;2023-10-13T15:54:12;5.83;;;2.90;;
1699;SDS011;847;48.058;7.810;2023-10-13T15:56:41;7.90;;;3.30;;
1699;SDS011;847;48.058;7.810;2023-10-13T15:59:09;4.20;;;3.53;;
1699;SDS011;847;48.058;7.810;2023-10-13T16:01:36;5.23;;;3.00;;
1699;SDS011;847;48.058;7.810;2023-10-13T16:04:04;4.10;;;2.87;;
1699;SDS011;847;48.058;7.810;2023-10-13T16:06:37;8.90;;;3.43;;
1699;SDS011;847;48.058;7.810;2023-10-13T16:09:04;4.77;;;3.13;;
1699;SDS011;847;48.058;7.810;2023-10-13T16:11:39;5.63;;;3.13;;
1699;SDS011;847;48.058;7.810;2023-10-13T16:14:07;4.37;;;3.00;;